Observations for RIETI, Italy (LIQN)

LIQN 091550Z 00000KT 8000 BKN035 10/08 Q1009
LIQN 091450Z VRB02KT 9000 BKN040 11/07 Q1009
LIQN 091350Z VRB02KT 9999 SCT040 11/07 Q1009
LIQN 091250Z VRB02KT 9999 FEW025 11/06 Q1010
LIQN 091150Z 31005KT CAVOK 10/06 Q1011  
LIQN 091050Z VRB02KT CAVOK 10/05 Q1012  
LIQN 090950Z VRB02KT CAVOK 05/03 Q1013  
LIQN 090850Z VRB02KT CAVOK 02/02 Q1014  
LIQN 090800Z 00000KT 8000 FEW005 00/00 Q1014